createdAt,value
2017-09-20T00:00:55.848Z,0.00
2017-09-20T00:01:55.832Z,0.00
2017-09-20T00:02:55.814Z,0.00
2017-09-20T00:03:55.798Z,0.00
2017-09-20T00:04:55.779Z,0.00
2017-09-20T00:05:55.762Z,0.00
2017-09-20T00:06:55.744Z,0.00
2017-09-20T00:07:55.728Z,0.00
2017-09-20T00:08:55.710Z,0.00
2017-09-20T00:09:55.692Z,0.00
2017-09-20T00:10:55.676Z,0.00
2017-09-20T00:11:55.659Z,0.00
2017-09-20T00:12:55.641Z,0.00
2017-09-20T00:13:55.623Z,0.00
2017-09-20T00:14:55.607Z,0.00
2017-09-20T00:15:55.588Z,0.00
2017-09-20T00:16:55.572Z,0.00
2017-09-20T00:17:55.554Z,0.00
2017-09-20T00:18:55.538Z,0.00
2017-09-20T00:19:55.520Z,0.00
2017-09-20T00:20:55.501Z,0.00
2017-09-20T00:21:55.484Z,0.00
2017-09-20T00:22:55.467Z,0.00
2017-09-20T00:23:55.448Z,0.00
2017-09-20T00:24:55.431Z,0.00
2017-09-20T00:25:55.417Z,0.00
2017-09-20T00:26:55.397Z,0.00
2017-09-20T00:27:55.380Z,0.00
2017-09-20T00:28:55.362Z,0.00
2017-09-20T00:29:55.345Z,0.00
2017-09-20T00:30:55.327Z,0.00
2017-09-20T00:31:55.311Z,0.00
2017-09-20T00:32:55.291Z,0.00
2017-09-20T00:33:55.280Z,0.00
2017-09-20T00:34:55.257Z,0.00
2017-09-20T00:35:55.240Z,0.00
2017-09-20T00:36:55.223Z,0.00
2017-09-20T00:37:55.206Z,0.00
2017-09-20T00:38:55.188Z,0.00
2017-09-20T00:39:55.171Z,0.00
2017-09-20T00:40:55.153Z,0.00
2017-09-20T00:41:55.142Z,0.00
2017-09-20T00:42:55.119Z,0.00
2017-09-20T00:43:55.101Z,0.00
2017-09-20T00:44:55.088Z,0.00
2017-09-20T00:45:55.068Z,0.00
2017-09-20T00:46:55.049Z,0.00
2017-09-20T00:47:55.033Z,0.00
2017-09-20T00:48:55.014Z,0.00
2017-09-20T00:49:54.996Z,0.00
2017-09-20T00:50:54.979Z,0.00
2017-09-20T00:51:54.962Z,0.00
2017-09-20T00:52:54.944Z,0.00
2017-09-20T00:53:54.926Z,0.00
2017-09-20T00:54:54.909Z,0.00
2017-09-20T00:55:54.890Z,0.00
2017-09-20T00:56:54.871Z,0.00
2017-09-20T00:57:54.853Z,0.00
2017-09-20T00:58:54.835Z,0.00
2017-09-20T00:59:54.819Z,0.00
2017-09-20T01:00:54.799Z,0.00
2017-09-20T01:01:54.782Z,0.00
2017-09-20T01:02:54.763Z,0.00
2017-09-20T01:03:54.746Z,0.00
2017-09-20T01:04:54.727Z,0.00
2017-09-20T01:05:54.709Z,0.00
2017-09-20T01:06:54.691Z,0.00
2017-09-20T01:07:54.674Z,0.00
2017-09-20T01:08:54.656Z,0.00
2017-09-20T01:09:54.636Z,0.00
2017-09-20T01:10:54.619Z,0.00
2017-09-20T01:11:54.600Z,0.00
2017-09-20T01:12:54.582Z,0.00
2017-09-20T01:13:54.568Z,0.00
2017-09-20T01:14:54.549Z,0.00
2017-09-20T01:15:54.529Z,0.00
2017-09-20T01:16:54.510Z,0.00
2017-09-20T01:17:54.491Z,0.00
2017-09-20T01:18:54.472Z,0.00
2017-09-20T01:19:54.460Z,0.00
2017-09-20T01:20:54.436Z,0.00
2017-09-20T01:21:54.417Z,0.00
2017-09-20T01:22:54.400Z,0.00
2017-09-20T01:23:54.382Z,0.00
2017-09-20T01:24:54.364Z,0.00
2017-09-20T01:25:54.344Z,0.00
2017-09-20T01:26:54.328Z,0.00
2017-09-20T01:27:54.310Z,0.00
2017-09-20T01:28:54.290Z,0.00
2017-09-20T01:29:54.272Z,0.00
2017-09-20T01:30:54.254Z,0.00
2017-09-20T01:31:54.237Z,0.00
2017-09-20T01:32:54.217Z,0.00
2017-09-20T01:33:54.199Z,0.00
2017-09-20T01:34:54.188Z,0.00
2017-09-20T01:35:54.163Z,0.00
2017-09-20T01:36:54.146Z,0.00
2017-09-20T01:37:54.129Z,0.00
2017-09-20T01:38:54.109Z,0.00
2017-09-20T01:39:54.092Z,0.00
2017-09-20T01:40:54.074Z,0.00
2017-09-20T01:41:54.056Z,0.00
2017-09-20T01:42:54.043Z,0.00
2017-09-20T01:43:54.020Z,0.00
2017-09-20T01:44:54.002Z,0.00
2017-09-20T01:45:53.984Z,0.00
2017-09-20T01:46:53.966Z,0.00
2017-09-20T01:47:53.950Z,0.00
2017-09-20T01:48:53.931Z,0.00
2017-09-20T01:49:53.916Z,0.00
2017-09-20T01:50:53.897Z,0.00
2017-09-20T01:51:53.879Z,0.00
2017-09-20T01:52:53.860Z,0.00
2017-09-20T01:53:53.843Z,0.00
2017-09-20T01:54:53.825Z,0.00
2017-09-20T01:55:53.815Z,0.00
2017-09-20T01:56:53.790Z,0.00
2017-09-20T01:57:53.772Z,0.00
2017-09-20T01:58:53.754Z,0.00
2017-09-20T01:59:53.737Z,0.00
2017-09-20T02:00:53.732Z,0.00
2017-09-20T02:01:53.699Z,0.00
2017-09-20T02:02:53.681Z,0.00
2017-09-20T02:03:53.664Z,0.00
2017-09-20T02:04:53.645Z,0.00
2017-09-20T02:05:53.626Z,0.00
2017-09-20T02:06:53.608Z,0.00
2017-09-20T02:07:53.589Z,0.00
2017-09-20T02:08:53.570Z,0.00
2017-09-20T02:09:53.552Z,0.00
2017-09-20T02:10:53.541Z,0.00
2017-09-20T02:11:53.519Z,0.00
2017-09-20T02:12:53.497Z,0.00
2017-09-20T02:13:53.479Z,0.00
2017-09-20T02:14:53.462Z,0.00
2017-09-20T02:15:53.444Z,0.00
2017-09-20T02:16:53.424Z,0.00
2017-09-20T02:17:53.409Z,0.00
2017-09-20T02:18:53.389Z,0.00
2017-09-20T02:19:53.372Z,0.00
2017-09-20T02:20:53.353Z,0.00
2017-09-20T02:21:53.334Z,0.00
2017-09-20T02:22:53.315Z,0.00
2017-09-20T02:23:53.298Z,0.00
2017-09-20T02:24:53.278Z,0.00
2017-09-20T02:25:53.260Z,0.00
2017-09-20T02:26:53.242Z,0.00
2017-09-20T02:27:53.223Z,0.00
2017-09-20T02:28:53.204Z,0.00
2017-09-20T02:29:53.186Z,0.00
2017-09-20T02:30:53.166Z,0.00
2017-09-20T02:31:53.148Z,0.00
2017-09-20T02:32:53.130Z,0.00
2017-09-20T02:33:53.112Z,0.00
2017-09-20T02:34:53.093Z,0.00
2017-09-20T02:35:53.077Z,0.00
2017-09-20T02:36:53.061Z,0.00
2017-09-20T02:37:53.038Z,0.00
2017-09-20T02:38:53.021Z,0.00
2017-09-20T02:39:53.003Z,0.00
2017-09-20T02:40:52.986Z,0.00
2017-09-20T02:41:52.966Z,0.00
2017-09-20T02:42:52.953Z,0.00
2017-09-20T02:43:52.931Z,0.00
2017-09-20T02:44:52.910Z,0.00
2017-09-20T02:45:52.893Z,0.00
2017-09-20T02:46:52.876Z,0.00
2017-09-20T02:47:52.857Z,0.00
2017-09-20T02:48:52.840Z,0.00
2017-09-20T02:49:52.821Z,0.00
2017-09-20T02:50:52.804Z,0.00
2017-09-20T02:51:52.800Z,0.00
2017-09-20T02:52:52.767Z,0.00
2017-09-20T02:53:52.750Z,0.00
2017-09-20T02:54:52.732Z,0.00
2017-09-20T02:55:52.713Z,0.00
2017-09-20T02:56:52.693Z,0.00
2017-09-20T02:57:52.674Z,0.00
2017-09-20T02:58:52.657Z,0.00
2017-09-20T02:59:52.638Z,0.00
2017-09-20T03:00:52.619Z,0.00
2017-09-20T03:01:52.599Z,0.00
2017-09-20T03:02:52.580Z,0.00
2017-09-20T03:03:52.563Z,0.00
2017-09-20T03:04:52.543Z,0.00
2017-09-20T03:05:52.525Z,0.00
2017-09-20T03:06:52.506Z,0.00
2017-09-20T03:07:52.488Z,0.00
2017-09-20T03:08:52.466Z,0.00
2017-09-20T03:09:52.450Z,0.00
2017-09-20T03:10:52.430Z,0.00
2017-09-20T03:11:52.410Z,0.00
2017-09-20T03:12:52.393Z,0.00
2017-09-20T03:13:52.372Z,0.00
2017-09-20T03:14:52.353Z,0.00
2017-09-20T03:15:52.335Z,0.00
2017-09-20T03:16:52.315Z,0.00
2017-09-20T03:17:52.296Z,0.00
2017-09-20T03:18:52.278Z,0.00
2017-09-20T03:19:52.259Z,0.00
2017-09-20T03:20:52.238Z,0.00
2017-09-20T03:21:52.219Z,0.00
2017-09-20T03:22:52.200Z,0.00
2017-09-20T03:23:52.180Z,0.00
2017-09-20T03:24:52.160Z,0.00
2017-09-20T03:25:52.142Z,0.00
2017-09-20T03:26:52.124Z,0.00
2017-09-20T03:27:52.104Z,0.00
2017-09-20T03:28:52.084Z,0.00
2017-09-20T03:29:52.067Z,0.00
2017-09-20T03:30:52.047Z,0.00
2017-09-20T03:31:52.026Z,0.00
2017-09-20T03:32:52.005Z,0.00
2017-09-20T03:33:51.992Z,0.00
2017-09-20T03:34:51.968Z,0.00
2017-09-20T03:35:51.950Z,0.00
2017-09-20T03:36:51.928Z,0.00
2017-09-20T03:37:51.909Z,0.00
2017-09-20T03:38:51.888Z,0.00
2017-09-20T03:39:51.869Z,0.00
2017-09-20T03:40:51.850Z,0.00
2017-09-20T03:41:51.830Z,0.00
2017-09-20T03:42:51.814Z,0.00
2017-09-20T03:43:51.791Z,0.00
2017-09-20T03:44:51.770Z,0.00
2017-09-20T03:45:51.750Z,0.00
2017-09-20T03:46:51.732Z,0.00
2017-09-20T03:47:51.714Z,0.00
2017-09-20T03:48:51.693Z,0.00
2017-09-20T03:49:51.674Z,0.00
2017-09-20T03:50:51.654Z,0.00
2017-09-20T03:51:51.642Z,0.00
2017-09-20T03:52:51.617Z,0.00
2017-09-20T03:53:51.623Z,0.00
2017-09-20T03:54:51.579Z,0.00
2017-09-20T03:55:51.560Z,0.00
2017-09-20T03:56:51.540Z,0.00
2017-09-20T03:57:51.521Z,0.00
2017-09-20T03:58:51.503Z,0.00
2017-09-20T03:59:51.485Z,0.00
2017-09-20T04:00:51.465Z,0.00
2017-09-20T04:01:51.445Z,0.00
2017-09-20T04:02:51.428Z,0.00
2017-09-20T04:03:51.408Z,0.00
2017-09-20T04:04:51.389Z,0.00
2017-09-20T04:05:51.378Z,0.00
2017-09-20T04:06:51.352Z,0.00
2017-09-20T04:07:51.333Z,0.00
2017-09-20T04:08:51.313Z,0.00
2017-09-20T04:09:51.294Z,0.00
2017-09-20T04:10:51.276Z,0.00
2017-09-20T04:11:51.257Z,0.00
2017-09-20T04:12:51.237Z,0.00
2017-09-20T04:13:51.218Z,0.00
2017-09-20T04:14:51.198Z,0.00
2017-09-20T04:15:51.179Z,0.00
2017-09-20T04:16:51.159Z,0.00
2017-09-20T04:17:51.145Z,0.00
2017-09-20T04:18:51.120Z,0.00
2017-09-20T04:19:51.103Z,0.00
2017-09-20T04:20:51.083Z,0.00
2017-09-20T04:21:51.063Z,0.00
2017-09-20T04:22:51.044Z,0.00
2017-09-20T04:23:51.024Z,0.00
2017-09-20T04:24:51.006Z,0.00
2017-09-20T04:25:50.987Z,0.00
2017-09-20T04:26:50.969Z,0.00
2017-09-20T04:27:50.948Z,0.00
2017-09-20T04:28:50.927Z,0.00
2017-09-20T04:29:50.909Z,0.00
2017-09-20T04:30:50.894Z,0.00
2017-09-20T04:31:50.873Z,0.00
2017-09-20T04:32:50.852Z,0.00
2017-09-20T04:33:50.834Z,0.00
2017-09-20T04:34:50.816Z,0.00
2017-09-20T04:35:50.796Z,0.00
2017-09-20T04:36:50.776Z,0.00
2017-09-20T04:37:50.759Z,0.00
2017-09-20T04:38:50.740Z,0.00
2017-09-20T04:39:50.721Z,0.00
2017-09-20T04:40:50.701Z,0.00
2017-09-20T04:41:50.683Z,0.00
2017-09-20T04:42:50.664Z,0.00
2017-09-20T04:43:50.648Z,0.00
2017-09-20T04:44:50.625Z,0.00
2017-09-20T04:45:50.607Z,0.00
2017-09-20T04:46:50.587Z,0.00
2017-09-20T04:47:50.567Z,0.00
2017-09-20T04:48:50.547Z,0.00
2017-09-20T04:49:50.530Z,0.00
2017-09-20T04:50:50.510Z,0.00
2017-09-20T04:51:50.491Z,0.00
2017-09-20T04:52:50.471Z,0.00
2017-09-20T04:53:50.452Z,0.00
2017-09-20T04:54:50.433Z,0.00
2017-09-20T04:55:50.416Z,0.00
2017-09-20T04:56:50.399Z,0.00
2017-09-20T04:57:50.375Z,0.00
2017-09-20T04:58:50.355Z,0.00
2017-09-20T04:59:50.335Z,0.00
2017-09-20T05:00:50.317Z,0.00
2017-09-20T05:01:50.296Z,0.00
2017-09-20T05:02:50.276Z,0.00
2017-09-20T05:03:50.257Z,0.00
2017-09-20T05:04:50.236Z,0.00
2017-09-20T05:05:50.221Z,0.00
2017-09-20T05:06:50.197Z,0.00
2017-09-20T05:07:50.179Z,0.00
2017-09-20T05:08:50.158Z,0.00
2017-09-20T05:09:50.139Z,0.00
2017-09-20T05:10:50.119Z,0.00
2017-09-20T05:11:50.100Z,0.00
2017-09-20T05:12:50.080Z,0.00
2017-09-20T05:13:50.060Z,0.00
2017-09-20T05:14:50.041Z,0.00
2017-09-20T05:15:50.022Z,5.63
2017-09-20T05:16:50.000Z,5.63
2017-09-20T05:17:49.981Z,5.63
2017-09-20T05:18:49.963Z,5.63
2017-09-20T05:19:49.942Z,5.63
2017-09-20T05:20:49.922Z,5.63
2017-09-20T05:21:49.902Z,5.63
2017-09-20T05:22:49.883Z,5.63
2017-09-20T05:23:49.870Z,5.63
2017-09-20T05:24:49.843Z,5.63
2017-09-20T05:25:49.823Z,5.63
2017-09-20T05:26:49.804Z,5.63
2017-09-20T05:27:49.791Z,5.63
2017-09-20T05:28:49.765Z,11.25
2017-09-20T05:29:49.745Z,11.25
2017-09-20T05:30:49.727Z,11.25
2017-09-20T05:31:49.748Z,11.25
2017-09-20T05:32:49.686Z,11.25
2017-09-20T05:33:49.667Z,11.25
2017-09-20T05:34:49.647Z,11.25
2017-09-20T05:35:49.627Z,11.25
2017-09-20T05:36:49.606Z,16.88
2017-09-20T05:37:49.588Z,16.88
2017-09-20T05:38:49.569Z,16.88
2017-09-20T05:39:49.548Z,16.88
2017-09-20T05:40:49.529Z,16.88
2017-09-20T05:41:49.507Z,16.88
2017-09-20T05:42:49.489Z,16.88
2017-09-20T05:43:49.468Z,16.88
2017-09-20T05:44:49.448Z,16.88
2017-09-20T05:45:49.427Z,16.88
2017-09-20T05:46:49.408Z,16.88
2017-09-20T05:47:49.388Z,16.88
2017-09-20T05:48:49.368Z,16.88
2017-09-20T05:49:49.349Z,16.88
2017-09-20T05:50:49.329Z,16.88
2017-09-20T05:51:49.309Z,22.50
2017-09-20T05:52:49.288Z,22.50
2017-09-20T05:53:49.269Z,22.50
2017-09-20T05:54:49.250Z,22.50
2017-09-20T05:55:49.230Z,22.50
2017-09-20T05:56:49.211Z,22.50
2017-09-20T05:57:49.194Z,22.50
2017-09-20T05:58:49.170Z,22.50
2017-09-20T05:59:49.150Z,22.50
2017-09-20T06:00:49.130Z,28.13
2017-09-20T06:01:49.118Z,28.13
2017-09-20T06:02:49.091Z,28.13
2017-09-20T06:03:49.071Z,33.75
2017-09-20T06:04:49.051Z,33.75
2017-09-20T06:05:49.032Z,33.75
2017-09-20T06:06:49.012Z,33.75
2017-09-20T06:07:48.992Z,33.75
2017-09-20T06:08:48.972Z,33.75
2017-09-20T06:09:48.952Z,33.75
2017-09-20T06:10:48.933Z,33.75
2017-09-20T06:11:48.914Z,39.38
2017-09-20T06:12:48.893Z,39.38
2017-09-20T06:13:48.874Z,45.00
2017-09-20T06:14:48.860Z,45.00
2017-09-20T06:15:48.835Z,50.63
2017-09-20T06:16:48.813Z,50.63
2017-09-20T06:17:48.794Z,56.25
2017-09-20T06:18:48.777Z,50.63
2017-09-20T06:19:48.756Z,50.63
2017-09-20T06:20:48.735Z,50.63
2017-09-20T06:21:48.716Z,56.25
2017-09-20T06:22:48.696Z,56.25
2017-09-20T06:23:48.677Z,56.25
2017-09-20T06:24:48.656Z,56.25
2017-09-20T06:25:48.637Z,56.25
2017-09-20T06:26:48.618Z,50.63
2017-09-20T06:27:48.599Z,50.63
2017-09-20T06:28:48.579Z,50.63
2017-09-20T06:29:48.560Z,50.63
2017-09-20T06:30:48.541Z,50.63
2017-09-20T06:31:48.521Z,45.00
2017-09-20T06:32:48.501Z,50.63
2017-09-20T06:33:48.482Z,50.63
2017-09-20T06:34:48.464Z,45.00
2017-09-20T06:35:48.444Z,45.00
2017-09-20T06:36:48.424Z,45.00
2017-09-20T06:37:48.405Z,50.63
2017-09-20T06:38:48.386Z,50.63
2017-09-20T06:39:48.365Z,50.63
2017-09-20T06:40:48.346Z,50.63
2017-09-20T06:41:48.327Z,56.25
2017-09-20T06:42:48.307Z,56.25
2017-09-20T06:43:48.288Z,56.25
2017-09-20T06:44:48.268Z,56.25
2017-09-20T06:45:48.250Z,56.25
2017-09-20T06:46:48.229Z,56.25
2017-09-20T06:47:48.210Z,56.25
2017-09-20T06:48:48.189Z,56.25
2017-09-20T06:49:48.171Z,61.88
2017-09-20T06:50:48.153Z,61.88
2017-09-20T06:51:48.134Z,61.88
2017-09-20T06:52:48.121Z,56.25
2017-09-20T06:53:48.095Z,56.25
2017-09-20T06:54:48.076Z,56.25
2017-09-20T06:55:48.058Z,67.50
2017-09-20T06:56:48.039Z,67.50
2017-09-20T06:57:48.019Z,61.88
2017-09-20T06:58:48.002Z,61.88
2017-09-20T06:59:47.982Z,61.88
2017-09-20T07:00:47.963Z,61.88
2017-09-20T07:01:47.946Z,61.88
2017-09-20T07:02:47.926Z,67.50
2017-09-20T07:03:47.908Z,67.50
2017-09-20T07:04:47.886Z,73.13
2017-09-20T07:05:47.869Z,73.13
2017-09-20T07:06:47.854Z,78.75
2017-09-20T07:07:47.833Z,84.38
2017-09-20T07:08:47.813Z,84.38
2017-09-20T07:09:47.796Z,78.75
2017-09-20T07:10:47.778Z,78.75
2017-09-20T07:11:47.761Z,73.13
2017-09-20T07:12:47.740Z,78.75
2017-09-20T07:13:47.724Z,84.38
2017-09-20T07:14:47.706Z,90.00
2017-09-20T07:15:47.687Z,95.63
2017-09-20T07:16:47.668Z,95.63
2017-09-20T07:17:47.651Z,101.25
2017-09-20T07:18:47.634Z,101.25
2017-09-20T07:19:47.615Z,95.63
2017-09-20T07:20:47.598Z,95.63
2017-09-20T07:21:47.580Z,95.63
2017-09-20T07:22:47.562Z,95.63
2017-09-20T07:23:47.543Z,95.63
2017-09-20T07:24:47.525Z,95.63
2017-09-20T07:25:47.511Z,101.25
2017-09-20T07:26:47.489Z,101.25
2017-09-20T07:27:47.478Z,106.88
2017-09-20T07:28:47.452Z,112.50
2017-09-20T07:29:47.435Z,123.75
2017-09-20T07:30:47.416Z,129.38
2017-09-20T07:31:47.398Z,129.38
2017-09-20T07:32:47.379Z,135.00
2017-09-20T07:33:47.361Z,129.38
2017-09-20T07:34:47.344Z,129.38
2017-09-20T07:35:47.326Z,123.75
2017-09-20T07:36:47.307Z,123.75
2017-09-20T07:37:47.289Z,123.75
2017-09-20T07:38:47.271Z,123.75
2017-09-20T07:39:47.260Z,123.75
2017-09-20T07:40:47.236Z,123.75
2017-09-20T07:41:47.218Z,123.75
2017-09-20T07:42:47.201Z,123.75
2017-09-20T07:43:47.183Z,129.38
2017-09-20T07:44:47.196Z,135.00
2017-09-20T07:45:47.147Z,135.00
2017-09-20T07:46:47.129Z,129.38
2017-09-20T07:47:47.112Z,129.38
2017-09-20T07:48:47.099Z,135.00
2017-09-20T07:49:47.076Z,129.38
2017-09-20T07:50:47.058Z,123.75
2017-09-20T07:51:47.042Z,123.75
2017-09-20T07:52:47.021Z,129.38
2017-09-20T07:53:47.004Z,135.00
2017-09-20T07:54:46.987Z,135.00
2017-09-20T07:55:46.969Z,140.63
2017-09-20T07:56:46.951Z,151.88
2017-09-20T07:57:46.933Z,157.50
2017-09-20T07:58:46.915Z,157.50
2017-09-20T07:59:46.897Z,157.50
2017-09-20T08:00:46.878Z,163.13
2017-09-20T08:01:46.861Z,174.38
2017-09-20T08:02:46.843Z,185.63
2017-09-20T08:03:46.827Z,185.63
2017-09-20T08:04:46.807Z,174.38
2017-09-20T08:05:46.840Z,163.13
2017-09-20T08:06:46.772Z,151.88
2017-09-20T08:07:46.755Z,157.50
2017-09-20T08:08:46.736Z,174.38
2017-09-20T08:09:46.719Z,196.88
2017-09-20T08:10:46.702Z,213.75
2017-09-20T08:11:46.687Z,213.75
2017-09-20T08:12:46.668Z,202.50
2017-09-20T08:13:46.651Z,191.25
2017-09-20T08:14:46.633Z,185.63
2017-09-20T08:15:46.617Z,174.38
2017-09-20T08:16:46.599Z,168.75
2017-09-20T08:17:46.585Z,174.38
2017-09-20T08:18:46.565Z,191.25
2017-09-20T08:19:46.548Z,202.50
2017-09-20T08:20:46.530Z,208.13
2017-09-20T08:21:46.513Z,219.38
2017-09-20T08:22:46.498Z,225.00
2017-09-20T08:23:46.481Z,208.13
2017-09-20T08:24:46.463Z,202.50
2017-09-20T08:25:46.446Z,219.38
2017-09-20T08:26:46.431Z,236.25
2017-09-20T08:27:46.414Z,281.25
2017-09-20T08:28:46.395Z,264.38
2017-09-20T08:29:46.378Z,292.50
2017-09-20T08:30:46.363Z,275.63
2017-09-20T08:31:46.347Z,258.75
2017-09-20T08:32:46.330Z,258.75
2017-09-20T08:33:46.315Z,247.50
2017-09-20T08:34:46.298Z,253.13
2017-09-20T08:35:46.288Z,253.13
2017-09-20T08:36:46.268Z,275.63
2017-09-20T08:37:46.254Z,270.00
2017-09-20T08:38:46.237Z,253.13
2017-09-20T08:39:46.221Z,247.50
2017-09-20T08:40:46.204Z,258.75
2017-09-20T08:41:46.188Z,253.13
2017-09-20T08:42:46.172Z,264.38
2017-09-20T08:43:46.155Z,281.25
2017-09-20T08:44:46.139Z,298.13
2017-09-20T08:45:46.124Z,298.13
2017-09-20T08:46:46.106Z,292.50
2017-09-20T08:47:46.091Z,270.00
2017-09-20T08:48:46.074Z,241.88
2017-09-20T08:49:46.058Z,253.13
2017-09-20T08:50:46.043Z,292.50
2017-09-20T08:51:46.027Z,309.38
2017-09-20T08:52:46.010Z,315.00
2017-09-20T08:53:45.995Z,298.13
2017-09-20T08:54:45.980Z,365.63
2017-09-20T08:55:45.966Z,320.63
2017-09-20T08:56:45.951Z,270.00
2017-09-20T08:57:45.934Z,281.25
2017-09-20T08:58:45.922Z,281.25
2017-09-20T08:59:45.907Z,275.63
2017-09-20T09:00:45.891Z,270.00
2017-09-20T09:01:45.877Z,258.75
2017-09-20T09:02:45.863Z,258.75
2017-09-20T09:03:45.849Z,253.13
2017-09-20T09:04:45.833Z,236.25
2017-09-20T09:05:45.821Z,236.25
2017-09-20T09:06:45.805Z,241.88
2017-09-20T09:07:45.791Z,236.25
2017-09-20T09:08:45.777Z,236.25
2017-09-20T09:09:45.762Z,230.63
2017-09-20T09:10:45.748Z,225.00
2017-09-20T09:11:45.733Z,219.38
2017-09-20T09:12:45.720Z,219.38
2017-09-20T09:13:45.706Z,213.75
2017-09-20T09:14:45.692Z,202.50
2017-09-20T09:15:45.678Z,191.25
2017-09-20T09:16:45.664Z,180.00
2017-09-20T09:17:45.650Z,174.38
2017-09-20T09:18:45.635Z,180.00
2017-09-20T09:19:45.621Z,191.25
2017-09-20T09:20:45.605Z,196.88
2017-09-20T09:21:45.591Z,196.88
2017-09-20T09:22:45.577Z,191.25
2017-09-20T09:23:45.561Z,196.88
2017-09-20T09:24:45.546Z,202.50
2017-09-20T09:25:45.532Z,196.88
2017-09-20T09:26:45.519Z,196.88
2017-09-20T09:27:45.503Z,196.88
2017-09-20T09:28:45.485Z,202.50
2017-09-20T09:29:45.470Z,196.88
2017-09-20T09:30:45.457Z,196.88
2017-09-20T09:31:45.441Z,202.50
2017-09-20T09:32:45.425Z,202.50
2017-09-20T09:33:45.410Z,202.50
2017-09-20T09:34:45.399Z,208.13
2017-09-20T09:35:45.380Z,213.75
2017-09-20T09:36:45.365Z,213.75
2017-09-20T09:37:45.349Z,219.38
2017-09-20T09:38:45.332Z,230.63
2017-09-20T09:39:45.319Z,241.88
2017-09-20T09:40:45.303Z,230.63
2017-09-20T09:41:45.287Z,225.00
2017-09-20T09:42:45.276Z,219.38
2017-09-20T09:43:45.256Z,208.13
2017-09-20T09:44:45.241Z,202.50
2017-09-20T09:45:45.230Z,196.88
2017-09-20T09:46:45.212Z,202.50
2017-09-20T09:47:45.195Z,219.38
2017-09-20T09:48:45.179Z,225.00
2017-09-20T09:49:45.165Z,230.63
2017-09-20T09:50:45.151Z,225.00
2017-09-20T09:51:45.136Z,219.38
2017-09-20T09:52:45.120Z,213.75
2017-09-20T09:53:45.105Z,208.13
2017-09-20T09:54:45.091Z,208.13
2017-09-20T09:55:45.077Z,219.38
2017-09-20T09:56:45.062Z,236.25
2017-09-20T09:57:45.049Z,230.63
2017-09-20T09:58:45.032Z,219.38
2017-09-20T09:59:45.018Z,202.50
2017-09-20T10:00:45.001Z,196.88
2017-09-20T10:01:44.986Z,196.88
2017-09-20T10:02:44.971Z,196.88
2017-09-20T10:03:44.960Z,196.88
2017-09-20T10:04:44.942Z,202.50
2017-09-20T10:05:44.927Z,208.13
2017-09-20T10:06:44.916Z,202.50
2017-09-20T10:07:44.898Z,213.75
2017-09-20T10:08:44.883Z,230.63
2017-09-20T10:09:44.868Z,236.25
2017-09-20T10:10:44.853Z,225.00
2017-09-20T10:11:44.840Z,219.38
2017-09-20T10:12:44.824Z,241.88
2017-09-20T10:13:44.808Z,241.88
2017-09-20T10:14:44.799Z,236.25
2017-09-20T10:15:44.780Z,241.88
2017-09-20T10:16:44.766Z,264.38
2017-09-20T10:17:44.752Z,286.88
2017-09-20T10:18:44.738Z,292.50
2017-09-20T10:19:44.723Z,298.13
2017-09-20T10:20:44.708Z,315.00
2017-09-20T10:21:44.695Z,309.38
2017-09-20T10:22:44.683Z,275.63
2017-09-20T10:23:44.669Z,264.38
2017-09-20T10:24:44.655Z,270.00
2017-09-20T10:25:44.640Z,264.38
2017-09-20T10:26:44.625Z,247.50
2017-09-20T10:27:44.612Z,236.25
2017-09-20T10:28:44.596Z,219.38
2017-09-20T10:29:44.684Z,208.13
2017-09-20T10:30:44.570Z,196.88
2017-09-20T10:31:44.556Z,196.88
2017-09-20T10:32:44.542Z,202.50
2017-09-20T10:33:44.529Z,196.88
2017-09-20T10:34:44.515Z,185.63
2017-09-20T10:35:44.501Z,185.63
2017-09-20T10:36:44.484Z,196.88
2017-09-20T10:37:44.472Z,219.38
2017-09-20T10:38:44.457Z,230.63
2017-09-20T10:39:44.447Z,225.00
2017-09-20T10:40:44.429Z,219.38
2017-09-20T10:41:44.415Z,219.38
2017-09-20T10:42:44.401Z,213.75
2017-09-20T10:43:44.387Z,208.13
2017-09-20T10:44:44.371Z,208.13
2017-09-20T10:45:44.359Z,208.13
2017-09-20T10:46:44.345Z,208.13
2017-09-20T10:47:44.332Z,208.13
2017-09-20T10:48:44.315Z,208.13
2017-09-20T10:49:44.302Z,208.13
2017-09-20T10:50:44.287Z,213.75
2017-09-20T10:51:44.273Z,219.38
2017-09-20T10:52:44.258Z,219.38
2017-09-20T10:53:44.244Z,225.00
2017-09-20T10:54:44.231Z,225.00
2017-09-20T10:55:44.217Z,225.00
2017-09-20T10:56:44.203Z,219.38
2017-09-20T10:57:44.190Z,225.00
2017-09-20T10:58:44.175Z,230.63
2017-09-20T10:59:44.161Z,241.88
2017-09-20T11:00:44.147Z,247.50
2017-09-20T11:01:44.133Z,247.50
2017-09-20T11:02:44.120Z,253.13
2017-09-20T11:03:44.105Z,253.13
2017-09-20T11:04:44.091Z,247.50
2017-09-20T11:05:44.077Z,236.25
2017-09-20T11:06:44.063Z,225.00
2017-09-20T11:07:44.049Z,219.38
2017-09-20T11:08:44.035Z,219.38
2017-09-20T11:09:44.021Z,219.38
2017-09-20T11:10:44.007Z,213.75
2017-09-20T11:11:43.995Z,208.13
2017-09-20T11:12:43.979Z,208.13
2017-09-20T11:13:43.966Z,219.38
2017-09-20T11:14:43.953Z,219.38
2017-09-20T11:15:43.939Z,225.00
2017-09-20T11:16:43.924Z,230.63
2017-09-20T11:17:43.910Z,225.00
2017-09-20T11:18:43.895Z,219.38
2017-09-20T11:19:43.884Z,213.75
2017-09-20T11:20:43.866Z,208.13
2017-09-20T11:21:43.853Z,208.13
2017-09-20T11:22:43.838Z,213.75
2017-09-20T11:23:43.823Z,208.13
2017-09-20T11:24:43.807Z,202.50
2017-09-20T11:25:43.793Z,202.50
2017-09-20T11:26:43.776Z,208.13
2017-09-20T11:27:43.762Z,208.13
2017-09-20T11:28:43.745Z,202.50
2017-09-20T11:29:43.731Z,208.13
2017-09-20T11:30:43.715Z,202.50
2017-09-20T11:31:43.701Z,208.13
2017-09-20T11:32:43.686Z,208.13
2017-09-20T11:33:43.672Z,202.50
2017-09-20T11:34:43.656Z,196.88
2017-09-20T11:35:43.647Z,196.88
2017-09-20T11:36:43.626Z,202.50
2017-09-20T11:37:43.611Z,196.88
2017-09-20T11:38:43.597Z,196.88
2017-09-20T11:39:43.582Z,196.88
2017-09-20T11:40:43.567Z,196.88
2017-09-20T11:41:43.552Z,196.88
2017-09-20T11:42:43.535Z,191.25
2017-09-20T11:43:43.522Z,202.50
2017-09-20T11:44:43.506Z,208.13
2017-09-20T11:45:43.490Z,213.75
2017-09-20T11:46:43.476Z,225.00
2017-09-20T11:47:43.461Z,241.88
2017-09-20T11:48:43.450Z,236.25
2017-09-20T11:49:43.430Z,258.75
2017-09-20T11:50:43.424Z,270.00
2017-09-20T11:51:43.398Z,247.50
2017-09-20T11:52:43.384Z,230.63
2017-09-20T11:53:43.369Z,241.88
2017-09-20T11:54:43.352Z,247.50
2017-09-20T11:55:43.339Z,241.88
2017-09-20T11:56:43.322Z,253.13
2017-09-20T11:57:43.307Z,264.38
2017-09-20T11:58:43.291Z,258.75
2017-09-20T11:59:43.276Z,253.13
2017-09-20T12:00:43.261Z,241.88
2017-09-20T12:01:43.247Z,236.25
2017-09-20T12:02:43.236Z,241.88
2017-09-20T12:03:43.215Z,264.38
2017-09-20T12:04:43.198Z,286.88
2017-09-20T12:05:43.182Z,326.25
2017-09-20T12:06:43.167Z,331.88
2017-09-20T12:07:43.152Z,320.63
2017-09-20T12:08:43.136Z,286.88
2017-09-20T12:09:43.120Z,258.75
2017-09-20T12:10:43.105Z,258.75
2017-09-20T12:11:43.091Z,281.25
2017-09-20T12:12:43.076Z,286.88
2017-09-20T12:13:43.058Z,281.25
2017-09-20T12:14:43.045Z,275.63
2017-09-20T12:15:43.029Z,275.63
2017-09-20T12:16:43.012Z,337.50
2017-09-20T12:17:42.995Z,382.50
2017-09-20T12:18:42.979Z,405.00
2017-09-20T12:19:42.966Z,371.25
2017-09-20T12:20:42.950Z,315.00
2017-09-20T12:21:42.939Z,309.38
2017-09-20T12:22:42.920Z,292.50
2017-09-20T12:23:42.905Z,303.75
2017-09-20T12:24:42.889Z,292.50
2017-09-20T12:25:42.874Z,275.63
2017-09-20T12:26:42.864Z,258.75
2017-09-20T12:27:42.844Z,258.75
2017-09-20T12:28:42.827Z,264.38
2017-09-20T12:29:42.816Z,275.63
2017-09-20T12:30:42.798Z,281.25
2017-09-20T12:31:42.783Z,298.13
2017-09-20T12:32:42.766Z,303.75
2017-09-20T12:33:42.752Z,309.38
2017-09-20T12:34:42.741Z,315.00
2017-09-20T12:35:42.721Z,303.75
2017-09-20T12:36:42.711Z,281.25
2017-09-20T12:37:42.700Z,247.50
2017-09-20T12:38:42.676Z,219.38
2017-09-20T12:39:42.661Z,196.88
2017-09-20T12:40:42.645Z,180.00
2017-09-20T12:41:42.630Z,168.75
2017-09-20T12:42:42.618Z,157.50
2017-09-20T12:43:42.604Z,151.88
2017-09-20T12:44:42.589Z,151.88
2017-09-20T12:45:42.570Z,151.88
2017-09-20T12:46:42.566Z,140.63
2017-09-20T12:47:42.540Z,146.25
2017-09-20T12:48:42.523Z,163.13
2017-09-20T12:49:42.509Z,185.63
2017-09-20T12:50:42.493Z,196.88
2017-09-20T12:51:42.477Z,196.88
2017-09-20T12:52:42.461Z,196.88